Allwood, New Jersey
Current Conditions -  °F | °C
As of 3:51 PM on Sunday 23 Nov 2014 (Local Time) from KTEB Reporting Station
Clear Clear  
Wind Chill: 54°   Ceiling: Unl
Heat Index: 54°   Visibility: 10mi
Dew Point: 26°   Wind: 5mph
Humidity: 34%   Direction: 180°S
Pressure: 30.12"   Gusts: NA
Location:  40.8469°N, 74.1593°W
Report Text: KTEB 232051Z 18004KT 10SM CLR 12/M03 A3012 RMK AO2 SLP199 T01221033 58003
Loading
Personal Weather Stations






























Interactive Weather Map New forecast layout! Learn more

10-Day Weather Forecast

Advertisements
Track Severe Weather on mobile